Time;durP1;ratioP1;P1;durP2;ratioP2;P2;SDS_P1;SDS_P2;PMS_P1;PMS_P2;Temp;Humidity;BMP_temperature;BMP_pressure;BME280_temperature;BME280_humidity;BME280_pressure;Samples;Min_cycle;Max_cycle;Signal;HPM_P1;HPM_P2
2023/09/10 00:00:15;;;;;;;0.10;0.10;;;;;;;21.62;100.00;101647.47;10418361;28;20137;-75
2023/09/10 00:05:17;;;;;;;0.28;0.20;;;;;;;19.91;100.00;101611.59;10396205;28;20050;-74
2023/09/10 00:10:18;;;;;;;0.40;0.40;;;;;;;21.11;100.00;101646.03;10417001;28;20045;-74
2023/09/10 00:15:20;;;;;;;0.43;0.35;;;;;;;20.88;100.00;101646.16;10398042;28;20133;-75
2023/09/10 00:20:22;;;;;;;0.20;0.10;;;;;;;21.00;100.00;101645.22;10394645;28;20049;-75
2023/09/10 00:25:24;;;;;;;0.00;0.00;;;;;;;21.18;100.00;101645.13;10414928;28;20046;-75
2023/09/10 00:30:29;;;;;;;0.50;0.17;;;;;;;21.05;100.00;101639.09;10423323;28;20045;-75
2023/09/10 00:35:30;;;;;;;0.00;0.00;;;;;;;21.45;100.00;101645.81;10418107;28;20063;-75
2023/09/10 00:40:32;;;;;;;0.30;0.17;;;;;;;21.28;100.00;101639.81;10413738;28;20051;-75
2023/09/10 00:45:34;;;;;;;0.43;0.28;;;;;;;21.05;100.00;101640.81;10396430;28;20045;-74
2023/09/10 00:50:36;;;;;;;1.88;0.47;;;;;;;21.08;100.00;101635.59;10394812;28;20088;-75
2023/09/10 00:55:37;;;;;;;0.57;0.20;;;;;;;20.85;100.00;101641.81;10407987;28;20526;-75
2023/09/10 01:00:42;;;;;;;0.20;0.20;;;;;;;20.85;100.00;101644.44;10420955;28;20128;-75
2023/09/10 01:05:44;;;;;;;0.70;0.25;;;;;;;20.72;100.00;101642.72;10390075;28;20049;-75
2023/09/10 01:10:55;;;;;;;0.10;0.10;;;;;;;20.69;100.00;101632.25;10411730;28;20128;-74
2023/09/10 01:16:04;;;;;;;0.10;0.10;;;;;;;21.05;100.00;101643.44;10397833;28;20060;-75
2023/09/10 01:21:30;;;;;;;0.00;0.00;;;;;;;20.64;100.00;101649.75;10408663;28;20537;-75
2023/09/10 01:26:32;;;;;;;0.40;0.40;;;;;;;20.55;100.00;101646.28;10411785;28;20068;-74
2023/09/10 01:31:39;;;;;;;0.15;0.15;;;;;;;20.66;100.00;101655.84;10412549;28;20053;-74
2023/09/10 01:36:45;;;;;;;0.30;0.30;;;;;;;20.83;100.00;101659.28;10426169;28;20045;-74
2023/09/10 01:41:49;;;;;;;0.05;0.05;;;;;;;20.70;100.00;101657.56;10410480;28;20481;-74
2023/09/10 01:46:53;;;;;;;0.00;0.00;;;;;;;20.84;100.00;101670.66;10411299;28;20401;-76
2023/09/10 01:51:55;;;;;;;0.28;0.10;;;;;;;20.84;100.00;101660.16;10400248;28;20041;-74
2023/09/10 01:56:56;;;;;;;0.52;0.20;;;;;;;20.35;100.00;101650.72;10368027;28;20052;-74
2023/09/10 02:01:58;;;;;;;0.10;0.10;;;;;;;20.43;100.00;101651.56;10394371;28;20576;-74
2023/09/10 02:07:00;;;;;;;0.30;0.30;;;;;;;20.41;100.00;101658.56;10397517;28;20053;-75
2023/09/10 02:12:02;;;;;;;0.10;0.00;;;;;;;20.98;100.00;101675.78;10397804;28;20039;-75
2023/09/10 02:17:04;;;;;;;0.15;0.15;;;;;;;20.58;100.00;101672.47;10418433;28;20488;-75
2023/09/10 02:22:06;;;;;;;0.00;0.00;;;;;;;21.01;100.00;101678.41;10389890;28;20045;-75
2023/09/10 02:27:07;;;;;;;0.10;0.10;;;;;;;21.19;100.00;101691.38;10393983;28;20670;-75
2023/09/10 02:32:09;;;;;;;0.20;0.10;;;;;;;20.86;100.00;101688.09;10392808;28;20093;-74
2023/09/10 02:37:13;;;;;;;0.00;0.00;;;;;;;20.86;100.00;101687.19;10398474;28;20104;-73
2023/09/10 02:42:17;;;;;;;0.03;0.03;;;;;;;21.13;100.00;101683.56;10421006;28;20045;-75
2023/09/10 02:47:18;;;;;;;0.10;0.10;;;;;;;20.19;100.00;101671.69;10406929;28;20052;-75
2023/09/10 02:52:24;;;;;;;0.38;0.17;;;;;;;19.89;100.00;101649.94;10405192;28;20041;-75
2023/09/10 02:57:26;;;;;;;0.08;0.08;;;;;;;20.11;100.00;101660.38;10388547;28;20135;-75
2023/09/10 03:02:27;;;;;;;0.00;0.00;;;;;;;20.39;100.00;101678.59;10418510;28;20516;-74
2023/09/10 03:07:29;;;;;;;0.10;0.10;;;;;;;20.20;100.00;101676.06;10440571;28;20132;-75
2023/09/10 03:12:31;;;;;;;0.03;0.03;;;;;;;20.48;100.00;101681.22;10413249;28;20507;-75
2023/09/10 03:17:34;;;;;;;0.08;0.08;;;;;;;20.12;100.00;101683.03;10421448;28;20125;-75
2023/09/10 03:22:37;;;;;;;0.10;0.10;;;;;;;20.16;100.00;101673.44;10410832;28;20048;-74
2023/09/10 03:27:38;;;;;;;0.30;0.10;;;;;;;20.41;100.00;101674.25;10386487;28;20049;-74
2023/09/10 03:32:40;;;;;;;0.10;0.10;;;;;;;20.61;100.00;101661.97;10416381;28;20033;-74
2023/09/10 03:37:42;;;;;;;0.13;0.13;;;;;;;20.48;100.00;101675.97;10431938;28;20074;-75
2023/09/10 03:42:44;;;;;;;0.20;0.15;;;;;;;20.31;100.00;101662.06;10412568;28;20042;-74
2023/09/10 03:47:46;;;;;;;0.08;0.08;;;;;;;20.33;100.00;101655.06;10391829;28;20069;-75
2023/09/10 03:52:48;;;;;;;0.00;0.00;;;;;;;20.57;100.00;101652.41;10416620;28;20045;-74
2023/09/10 03:57:50;;;;;;;0.20;0.20;;;;;;;20.36;100.00;101661.19;10398269;28;20042;-75
2023/09/10 04:02:52;;;;;;;0.03;0.03;;;;;;;20.44;100.00;101648.06;10403756;28;20056;-75
2023/09/10 04:07:54;;;;;;;0.10;0.10;;;;;;;20.49;100.00;101651.53;10421174;28;20071;-75
2023/09/10 04:12:56;;;;;;;0.38;0.30;;;;;;;20.37;100.00;101656.81;10410732;28;20049;-75
2023/09/10 04:17:57;;;;;;;0.00;0.00;;;;;;;20.35;100.00;101653.34;10398431;28;20139;-75
2023/09/10 04:22:59;;;;;;;0.00;0.00;;;;;;;20.39;100.00;101657.69;10399687;28;20046;-74
2023/09/10 04:28:01;;;;;;;0.30;0.13;;;;;;;19.95;100.00;101643.84;10411486;28;20045;-73
2023/09/10 04:33:03;;;;;;;0.38;0.22;;;;;;;20.34;100.00;101652.44;10404487;28;20506;-75
2023/09/10 04:38:05;;;;;;;0.00;0.00;;;;;;;20.98;100.00;101663.59;10409552;28;20049;-75
2023/09/10 04:43:07;;;;;;;0.50;0.20;;;;;;;20.38;100.00;101663.78;10415641;28;20045;-75
2023/09/10 04:48:12;;;;;;;0.80;0.73;;;;;;;20.25;100.00;101653.34;10380296;28;20053;-75
2023/09/10 04:53:14;;;;;;;0.15;0.15;;;;;;;20.37;100.00;101662.03;10403567;28;20050;-75
2023/09/10 04:58:16;;;;;;;0.30;0.20;;;;;;;20.41;100.00;101664.63;10402937;28;20140;-75
2023/09/10 05:03:18;;;;;;;0.30;0.25;;;;;;;20.35;100.00;101666.41;10407150;28;20386;-74
2023/09/10 05:08:20;;;;;;;0.10;0.10;;;;;;;20.29;100.00;101673.38;10390927;28;20132;-74
2023/09/10 05:13:22;;;;;;;0.00;0.00;;;;;;;20.42;100.00;101676.00;10397681;28;20447;-74
2023/09/10 05:18:24;;;;;;;0.00;0.00;;;;;;;20.40;100.00;101670.75;10419119;28;20132;-74
2023/09/10 05:23:26;;;;;;;0.00;0.00;;;;;;;20.65;100.00;101667.19;10394565;28;20047;-75
2023/09/10 05:28:30;;;;;;;0.00;0.00;;;;;;;20.50;100.00;101669.00;10394017;28;20037;-75
2023/09/10 05:33:33;;;;;;;0.00;0.00;;;;;;;20.82;100.00;101673.25;10401587;28;20053;-75
2023/09/10 05:38:35;;;;;;;0.85;0.38;;;;;;;21.05;100.00;101678.38;10377397;28;20487;-74
2023/09/10 05:43:36;;;;;;;0.20;0.10;;;;;;;20.99;100.00;101688.00;10406794;28;20043;-74
2023/09/10 05:48:39;;;;;;;0.93;0.47;;;;;;;21.06;100.00;101669.66;10400871;28;20049;-74
2023/09/10 05:53:42;;;;;;;0.00;0.00;;;;;;;21.42;100.00;101687.75;10400703;28;20281;-74
2023/09/10 05:58:44;;;;;;;0.20;0.20;;;;;;;21.23;100.00;101677.41;10399319;28;20401;-75
2023/09/10 06:03:46;;;;;;;0.00;0.00;;;;;;;21.40;100.00;101668.56;10378121;28;20400;-75
2023/09/10 06:08:48;;;;;;;0.10;0.10;;;;;;;21.94;100.00;101677.75;10426496;28;20041;-75
2023/09/10 06:13:50;;;;;;;0.90;0.40;;;;;;;22.26;100.00;101685.34;10393479;28;20065;-75
2023/09/10 06:18:52;;;;;;;0.60;0.40;;;;;;;22.48;100.00;101688.63;10410261;28;20041;-75
2023/09/10 06:23:53;;;;;;;0.30;0.10;;;;;;;23.06;100.00;101690.53;10442185;28;20575;-75
2023/09/10 06:28:55;;;;;;;0.50;0.20;;;;;;;23.61;100.00;101699.38;10392394;28;20100;-75
2023/09/10 06:33:57;;;;;;;0.05;0.05;;;;;;;23.75;100.00;101686.88;10377487;28;20046;-74
2023/09/10 06:38:59;;;;;;;0.45;0.20;;;;;;;24.47;100.00;101702.28;10418226;28;20052;-75
2023/09/10 06:44:01;;;;;;;0.93;0.70;;;;;;;24.99;100.00;101721.44;10419164;28;20099;-75
2023/09/10 06:49:04;;;;;;;1.50;0.75;;;;;;;25.94;100.00;101725.44;10406560;28;20045;-75
2023/09/10 06:54:06;;;;;;;2.15;1.15;;;;;;;26.47;100.00;101732.00;10412751;28;20140;-74
2023/09/10 06:59:08;;;;;;;0.88;0.77;;;;;;;26.22;100.00;101727.38;10386282;28;20055;-75
2023/09/10 07:04:23;;;;;;;3.58;1.23;;;;;;;27.65;100.00;101732.00;10401957;28;20262;-76
2023/09/10 07:09:25;;;;;;;2.53;1.25;;;;;;;26.80;100.00;101734.59;10402884;28;20063;-75
2023/09/10 07:14:27;;;;;;;2.25;0.90;;;;;;;26.64;100.00;101738.56;10405948;28;20046;-75
2023/09/10 07:19:28;;;;;;;1.95;1.38;;;;;;;26.98;100.00;101742.91;10395326;28;20049;-75
2023/09/10 07:24:30;;;;;;;1.67;1.42;;;;;;;27.84;100.00;101740.19;10408361;28;20056;-75
2023/09/10 07:29:32;;;;;;;1.55;1.35;;;;;;;28.15;100.00;101741.84;10396926;28;20046;-75
2023/09/10 07:34:34;;;;;;;2.03;1.23;;;;;;;27.96;100.00;101748.66;10401211;28;20520;-75
2023/09/10 07:39:35;;;;;;;1.20;0.75;;;;;;;27.75;100.00;101748.44;10430356;28;20472;-74
2023/09/10 07:44:37;;;;;;;1.17;1.05;;;;;;;28.67;100.00;101751.47;10423903;28;20046;-74
2023/09/10 07:49:38;;;;;;;3.40;1.20;;;;;;;29.05;100.00;101757.16;10411266;28;20040;-75
2023/09/10 07:54:40;;;;;;;2.20;1.40;;;;;;;29.10;100.00;101765.78;10398440;28;20045;-76
2023/09/10 07:59:42;;;;;;;0.85;0.75;;;;;;;29.49;100.00;101766.09;10397305;28;20041;-75
2023/09/10 08:04:44;;;;;;;2.35;0.93;;;;;;;30.09;100.00;101770.75;10387718;28;20404;-75
2023/09/10 08:09:46;;;;;;;1.27;0.85;;;;;;;30.54;100.00;101769.69;10393248;28;20386;-74
2023/09/10 08:14:47;;;;;;;1.00;0.85;;;;;;;30.68;100.00;101764.63;10400255;28;20485;-75
2023/09/10 08:19:49;;;;;;;0.80;0.63;;;;;;;31.05;100.00;101766.50;10417964;28;20052;-75
2023/09/10 08:24:53;;;;;;;1.05;0.70;;;;;;;31.54;100.00;101773.94;10415216;28;20038;-75
2023/09/10 08:29:55;;;;;;;1.02;0.60;;;;;;;31.32;100.00;101762.53;10389778;28;20069;-75
2023/09/10 08:34:56;;;;;;;1.63;0.80;;;;;;;31.52;100.00;101773.16;10416031;28;20045;-75
2023/09/10 08:39:58;;;;;;;0.80;0.80;;;;;;;32.12;100.00;101770.19;10382267;28;20455;-75
2023/09/10 08:45:03;;;;;;;3.50;1.33;;;;;;;31.71;100.00;101775.81;10401928;28;20052;-75
2023/09/10 08:50:13;;;;;;;1.02;0.75;;;;;;;30.87;100.00;101771.72;10400212;28;20056;-75
2023/09/10 08:55:15;;;;;;;1.75;1.02;;;;;;;32.33;100.00;101778.03;10399083;28;20531;-75
2023/09/10 09:00:22;;;;;;;0.95;0.93;;;;;;;32.68;100.00;101768.16;10411279;28;20500;-75
2023/09/10 09:05:27;;;;;;;1.15;0.90;;;;;;;32.43;100.00;101774.78;10410891;28;20049;-74
2023/09/10 09:10:29;;;;;;;0.52;0.50;;;;;;;33.42;100.00;101763.22;10410056;28;20132;-76
2023/09/10 09:15:32;;;;;;;2.08;1.08;;;;;;;33.03;100.00;101761.81;10414046;28;20041;-75
2023/09/10 09:20:36;;;;;;;8.25;1.25;;;;;;;33.27;100.00;101753.38;10382665;28;20052;-75
2023/09/10 09:25:45;;;;;;;2.00;1.38;;;;;;;34.17;100.00;101749.91;10477371;28;20458;-75
2023/09/10 09:30:46;;;;;;;0.40;0.40;;;;;;;33.90;100.00;101752.44;10464964;28;20128;-75
2023/09/10 09:35:48;;;;;;;1.00;0.80;;;;;;;32.67;100.00;101752.22;10479127;28;20067;-76
2023/09/10 09:40:50;;;;;;;1.27;0.65;;;;;;;33.93;100.00;101746.03;10483230;28;20128;-75
2023/09/10 09:45:51;;;;;;;2.60;1.65;;;;;;;33.29;100.00;101740.81;10486113;28;20040;-75
2023/09/10 09:50:54;;;;;;;1.02;0.65;;;;;;;33.18;100.00;101742.28;10480708;28;20115;-75
2023/09/10 09:55:59;;;;;;;1.00;0.70;;;;;;;33.50;100.00;101736.06;10483777;28;20040;-75
2023/09/10 10:01:00;;;;;;;1.30;0.80;;;;;;;34.17;100.00;101735.69;10476287;28;20178;-74
2023/09/10 10:06:03;;;;;;;0.80;0.60;;;;;;;35.45;100.00;101736.59;10463711;28;20499;-75
2023/09/10 10:11:04;;;;;;;0.55;0.55;;;;;;;35.04;100.00;101725.78;10464946;28;20060;-75
2023/09/10 10:16:07;;;;;;;0.75;0.68;;;;;;;34.99;100.00;101719.88;10463663;28;20053;-75
2023/09/10 10:21:10;;;;;;;0.50;0.43;;;;;;;35.16;100.00;101715.25;10469252;28;20091;-75
2023/09/10 10:26:15;;;;;;;0.50;0.40;;;;;;;33.73;100.00;101718.69;10498782;28;20056;-75
2023/09/10 10:31:21;;;;;;;0.73;0.73;;;;;;;35.02;100.00;101721.50;10482577;28;20040;-75
2023/09/10 10:36:29;;;;;;;0.10;0.10;;;;;;;35.13;100.00;101715.44;10460581;28;20139;-75
2023/09/10 10:41:34;;;;;;;0.57;0.30;;;;;;;35.00;100.00;101705.53;10456531;28;20072;-75
2023/09/10 10:46:38;;;;;;;0.88;0.70;;;;;;;35.56;100.00;101708.09;10441920;28;20064;-75
2023/09/10 10:51:46;;;;;;;2.72;0.70;;;;;;;35.22;100.00;101701.44;10439706;28;20116;-75
2023/09/10 10:56:56;;;;;;;0.80;0.70;;;;;;;35.31;100.00;101698.16;10457784;28;20098;-74
2023/09/10 11:02:08;;;;;;;1.40;1.27;;;;;;;35.11;100.00;101697.66;10444419;28;20476;-75
2023/09/10 11:07:17;;;;;;;0.40;0.30;;;;;;;35.32;100.00;101685.63;10441361;28;20102;-75
2023/09/10 11:12:19;;;;;;;0.88;0.70;;;;;;;34.69;100.00;101685.25;10453877;28;20120;-75
2023/09/10 11:17:22;;;;;;;0.60;0.55;;;;;;;35.58;100.00;101679.41;10457140;28;20398;-74
2023/09/10 11:22:25;;;;;;;0.20;0.20;;;;;;;36.31;100.00;101682.38;10446503;28;20041;-75
2023/09/10 11:27:27;;;;;;;0.70;0.63;;;;;;;34.26;100.00;101683.44;10432283;28;20049;-75
2023/09/10 11:32:29;;;;;;;0.65;0.40;;;;;;;34.24;100.00;101680.00;10456223;28;20036;-74
2023/09/10 11:37:33;;;;;;;0.40;0.40;;;;;;;36.09;100.00;101687.56;10430945;28;20467;-75
2023/09/10 11:42:35;;;;;;;0.55;0.55;;;;;;;35.81;100.00;101678.75;10449308;28;20427;-75
2023/09/10 11:47:40;;;;;;;1.05;0.88;;;;;;;35.22;100.00;101666.63;10428478;28;20060;-75
2023/09/10 11:52:42;;;;;;;0.20;0.20;;;;;;;35.65;100.00;101677.13;10448551;28;20096;-75
2023/09/10 11:57:44;;;;;;;0.60;0.52;;;;;;;34.32;100.00;101667.88;10417468;28;20057;-75
2023/09/10 12:02:46;;;;;;;0.68;0.45;;;;;;;35.01;100.00;101664.44;10452381;28;20408;-74
2023/09/10 12:07:49;;;;;;;0.70;0.45;;;;;;;34.68;100.00;101676.34;10428843;28;20126;-74
2023/09/10 12:12:51;;;;;;;0.57;0.43;;;;;;;35.23;100.00;101665.69;10450792;28;20041;-75
2023/09/10 12:17:52;;;;;;;0.85;0.60;;;;;;;34.59;100.00;101668.94;10444878;28;20049;-75
2023/09/10 12:22:54;;;;;;;0.52;0.50;;;;;;;33.55;100.00;101661.00;10450508;28;20037;-74
2023/09/10 12:27:56;;;;;;;1.35;0.70;;;;;;;35.76;100.00;101662.16;10445593;28;20037;-75
2023/09/10 12:33:00;;;;;;;0.43;0.25;;;;;;;35.86;100.00;101660.50;10433843;28;20464;-75
2023/09/10 12:38:01;;;;;;;0.43;0.43;;;;;;;34.93;100.00;101656.88;10446190;28;20048;-75
2023/09/10 12:43:03;;;;;;;0.68;0.40;;;;;;;35.07;100.00;101637.25;10436974;28;20512;-75
2023/09/10 12:48:05;;;;;;;0.20;0.20;;;;;;;35.18;100.00;101639.19;10448786;28;20044;-75
2023/09/10 12:53:07;;;;;;;0.45;0.32;;;;;;;35.12;100.00;101639.63;10442997;28;20045;-75
2023/09/10 12:58:13;;;;;;;0.32;0.30;;;;;;;35.21;100.00;101638.13;10436536;28;20136;-75
2023/09/10 13:03:14;;;;;;;0.65;0.30;;;;;;;35.72;100.00;101630.19;10447718;28;20690;-75
2023/09/10 13:08:16;;;;;;;0.30;0.20;;;;;;;35.02;100.00;101630.47;10450588;28;20408;-75
2023/09/10 13:13:18;;;;;;;0.63;0.30;;;;;;;34.64;100.00;101626.66;10424716;28;20033;-75
2023/09/10 13:18:20;;;;;;;1.75;0.63;;;;;;;35.73;100.00;101623.84;10422070;28;20046;-75
2023/09/10 13:23:22;;;;;;;1.10;0.73;;;;;;;35.42;100.00;101619.78;10431824;28;20492;-75
2023/09/10 13:28:24;;;;;;;0.75;0.30;;;;;;;34.47;100.00;101628.63;10443810;28;20063;-75
2023/09/10 13:33:25;;;;;;;0.55;0.30;;;;;;;34.60;100.00;101614.44;10448893;28;20056;-74
2023/09/10 13:38:27;;;;;;;0.15;0.15;;;;;;;35.03;100.00;101614.31;10452954;28;20099;-75
2023/09/10 13:43:30;;;;;;;0.82;0.55;;;;;;;34.72;100.00;101613.66;10435779;28;20040;-75
2023/09/10 13:48:31;;;;;;;0.98;0.50;;;;;;;35.02;100.00;101603.69;10438143;28;20050;-74
2023/09/10 13:53:33;;;;;;;0.85;0.65;;;;;;;35.14;100.00;101592.19;10451637;28;20254;-75
2023/09/10 13:58:34;;;;;;;0.63;0.35;;;;;;;34.82;100.00;101594.28;10421762;28;20049;-75
2023/09/10 14:03:36;;;;;;;0.35;0.35;;;;;;;35.48;100.00;101591.72;10432308;28;20045;-75
2023/09/10 14:08:38;;;;;;;0.63;0.52;;;;;;;34.42;100.00;101585.25;10439339;28;20492;-75
2023/09/10 14:13:41;;;;;;;1.33;1.13;;;;;;;35.21;100.00;101590.81;10444887;28;20036;-75
2023/09/10 14:18:43;;;;;;;0.50;0.47;;;;;;;34.64;100.00;101581.19;10453219;28;20408;-75
2023/09/10 14:23:44;;;;;;;0.50;0.30;;;;;;;35.09;100.00;101575.53;10438896;28;20049;-75
2023/09/10 14:28:46;;;;;;;0.38;0.35;;;;;;;35.44;100.00;101576.81;10443843;28;20045;-75
2023/09/10 14:33:47;;;;;;;0.10;0.10;;;;;;;35.14;100.00;101583.28;10432206;28;20132;-75
2023/09/10 14:38:49;;;;;;;0.70;0.50;;;;;;;34.39;100.00;101581.94;10432801;28;20046;-75
2023/09/10 14:43:51;;;;;;;0.40;0.25;;;;;;;35.13;100.00;101570.84;10452150;28;20041;-74
2023/09/10 14:48:52;;;;;;;0.47;0.35;;;;;;;35.19;100.00;101567.75;10427944;28;20049;-75
2023/09/10 14:53:54;;;;;;;1.27;0.40;;;;;;;35.39;100.00;101571.75;10444568;28;20488;-76
2023/09/10 14:58:56;;;;;;;0.98;0.40;;;;;;;33.63;100.00;101562.53;10455602;28;20045;-76
2023/09/10 15:03:58;;;;;;;1.60;0.68;;;;;;;34.58;100.00;101566.38;10448906;28;20703;-75
2023/09/10 15:08:59;;;;;;;0.10;0.10;;;;;;;34.78;100.00;101557.03;10452838;28;20059;-75
2023/09/10 15:14:01;;;;;;;0.38;0.38;;;;;;;34.86;100.00;101559.19;10453173;28;20496;-75
2023/09/10 15:19:03;;;;;;;0.43;0.30;;;;;;;34.36;100.00;101556.22;10424720;28;20077;-75
2023/09/10 15:24:05;;;;;;;0.73;0.47;;;;;;;34.74;100.00;101550.16;10449241;28;20048;-75
2023/09/10 15:29:07;;;;;;;0.20;0.20;;;;;;;34.03;100.00;101554.75;10444393;28;20048;-75
2023/09/10 15:34:09;;;;;;;0.20;0.20;;;;;;;34.82;100.00;101546.09;10439219;28;20098;-75
2023/09/10 15:39:15;;;;;;;0.35;0.17;;;;;;;34.37;100.00;101544.56;10433866;28;20049;-75
2023/09/10 15:44:17;;;;;;;0.30;0.28;;;;;;;34.97;100.00;101542.44;10432342;28;20041;-76
2023/09/10 15:49:19;;;;;;;2.15;1.27;;;;;;;34.52;100.00;101533.81;10450634;28;20091;-75
2023/09/10 15:54:21;;;;;;;0.15;0.15;;;;;;;34.24;100.00;101527.56;10446649;28;20052;-75
2023/09/10 15:59:22;;;;;;;0.25;0.20;;;;;;;34.37;100.00;101531.19;10441704;28;20118;-74
2023/09/10 16:04:24;;;;;;;0.00;0.00;;;;;;;34.38;100.00;101532.91;10434889;28;20102;-75
2023/09/10 16:09:26;;;;;;;0.68;0.30;;;;;;;34.23;100.00;101524.06;10445560;28;20053;-75
2023/09/10 16:14:27;;;;;;;0.00;0.00;;;;;;;34.02;100.00;101515.59;10449852;28;20094;-75
2023/09/10 16:19:30;;;;;;;0.20;0.17;;;;;;;33.81;100.00;101513.31;10429273;28;20072;-74
2023/09/10 16:24:34;;;;;;;0.08;0.08;;;;;;;34.17;100.00;101519.97;10447274;28;20053;-75
2023/09/10 16:29:36;;;;;;;0.10;0.10;;;;;;;34.37;100.00;101507.13;10422512;28;20131;-74
2023/09/10 16:34:37;;;;;;;0.10;0.10;;;;;;;34.00;100.00;101512.16;10448647;28;20044;-75
2023/09/10 16:39:39;;;;;;;0.03;0.03;;;;;;;33.81;100.00;101507.97;10446513;28;20037;-75
2023/09/10 16:44:41;;;;;;;0.00;0.00;;;;;;;33.88;100.00;101510.28;10447094;28;20469;-74
2023/09/10 16:49:43;;;;;;;0.25;0.25;;;;;;;33.33;100.00;101510.06;10448207;28;20045;-75
2023/09/10 16:54:44;;;;;;;0.00;0.00;;;;;;;33.71;100.00;101506.81;10447309;28;20507;-75
2023/09/10 16:59:48;;;;;;;0.00;0.00;;;;;;;33.93;100.00;101505.50;10444038;28;20056;-75
2023/09/10 17:04:49;;;;;;;0.22;0.22;;;;;;;33.71;100.00;101501.47;10446216;28;20068;-75
2023/09/10 17:09:51;;;;;;;0.38;0.20;;;;;;;33.83;100.00;101500.72;10453500;28;20485;-75
2023/09/10 17:14:53;;;;;;;0.73;0.28;;;;;;;33.38;100.00;101502.66;10439843;28;20045;-75
2023/09/10 17:19:54;;;;;;;0.45;0.32;;;;;;;33.51;100.00;101506.25;10446632;28;20632;-74
2023/09/10 17:24:56;;;;;;;0.20;0.15;;;;;;;33.33;100.00;101502.03;10431799;28;20400;-75
2023/09/10 17:29:57;;;;;;;0.10;0.10;;;;;;;32.97;100.00;101496.16;10442510;28;20392;-76
2023/09/10 17:34:59;;;;;;;0.13;0.10;;;;;;;32.68;100.00;101495.16;10443259;28;20044;-75
2023/09/10 17:40:01;;;;;;;0.55;0.40;;;;;;;32.25;100.00;101509.16;10426651;28;20045;-75
2023/09/10 17:45:03;;;;;;;0.52;0.20;;;;;;;32.11;100.00;101508.09;10454375;28;20052;-74
2023/09/10 17:50:05;;;;;;;0.10;0.10;;;;;;;31.88;100.00;101505.84;10453935;28;20064;-75
2023/09/10 17:55:08;;;;;;;0.30;0.20;;;;;;;31.61;100.00;101509.91;10457525;28;20056;-74
2023/09/10 18:00:10;;;;;;;1.17;0.20;;;;;;;31.02;100.00;101502.28;10437762;28;20049;-75
2023/09/10 18:05:11;;;;;;;0.00;0.00;;;;;;;30.59;100.00;101503.59;10455755;28;20373;-75
2023/09/10 18:10:13;;;;;;;0.38;0.15;;;;;;;30.31;100.00;101499.56;10431403;28;20040;-75
2023/09/10 18:15:15;;;;;;;0.00;0.00;;;;;;;30.45;100.00;101501.56;10451127;28;20049;-76
2023/09/10 18:20:16;;;;;;;0.15;0.15;;;;;;;30.17;100.00;101502.91;10455794;28;20071;-75
2023/09/10 18:25:19;;;;;;;0.15;0.15;;;;;;;30.03;100.00;101501.75;10453069;28;20037;-74
2023/09/10 18:30:24;;;;;;;0.30;0.30;;;;;;;29.79;100.00;101502.84;10447355;28;20407;-75
2023/09/10 18:35:25;;;;;;;0.57;0.43;;;;;;;29.47;100.00;101510.47;10444629;28;20055;-75
2023/09/10 18:40:27;;;;;;;0.35;0.35;;;;;;;29.49;100.00;101508.63;10432791;28;20141;-74
2023/09/10 18:45:29;;;;;;;0.25;0.25;;;;;;;29.43;100.00;101507.09;10439452;28;20060;-75
2023/09/10 18:50:31;;;;;;;1.77;0.80;;;;;;;29.18;100.00;101507.28;10439565;28;20051;-75
2023/09/10 18:55:32;;;;;;;0.13;0.13;;;;;;;28.81;100.00;101499.09;10464964;28;20419;-75
2023/09/10 19:00:34;;;;;;;0.10;0.10;;;;;;;28.60;100.00;101498.16;10435235;28;20055;-75
2023/09/10 19:05:41;;;;;;;0.38;0.30;;;;;;;28.27;100.00;101495.91;10425798;28;20052;-75
2023/09/10 19:10:42;;;;;;;0.30;0.13;;;;;;;27.98;100.00;101495.22;10452202;28;20070;-75
2023/09/10 19:15:44;;;;;;;0.57;0.20;;;;;;;27.92;100.00;101498.13;10446277;28;20053;-74
2023/09/10 19:20:48;;;;;;;0.17;0.17;;;;;;;27.93;100.00;101499.84;10444700;28;20119;-75
2023/09/10 19:25:51;;;;;;;0.88;0.45;;;;;;;27.87;100.00;101500.94;10450781;28;20491;-75
2023/09/10 19:30:54;;;;;;;0.32;0.10;;;;;;;28.08;100.00;101501.06;10446562;28;20136;-75
2023/09/10 19:36:04;;;;;;;0.38;0.32;;;;;;;27.69;100.00;101503.34;10433563;28;20083;-75
2023/09/10 19:41:06;;;;;;;0.30;0.30;;;;;;;27.61;100.00;101499.25;10430041;28;20295;-74
2023/09/10 19:46:08;;;;;;;0.20;0.13;;;;;;;27.29;100.00;101494.16;10442952;28;20045;-75
2023/09/10 19:51:09;;;;;;;0.13;0.13;;;;;;;27.43;100.00;101493.72;10448853;28;20037;-74
2023/09/10 19:56:13;;;;;;;0.68;0.30;;;;;;;27.64;100.00;101489.41;10439965;28;20148;-74
2023/09/10 20:01:15;;;;;;;0.55;0.55;;;;;;;27.82;100.00;101497.59;10445943;28;20049;-75
2023/09/10 20:06:17;;;;;;;1.27;0.85;;;;;;;27.42;100.00;101499.94;10429719;28;20052;-75
2023/09/10 20:11:19;;;;;;;0.20;0.20;;;;;;;27.42;100.00;101492.00;10448730;28;20079;-74
2023/09/10 20:16:21;;;;;;;0.13;0.13;;;;;;;27.23;100.00;101494.38;10448914;28;20411;-75
2023/09/10 20:21:22;;;;;;;0.30;0.30;;;;;;;27.16;100.00;101499.00;10445591;28;20049;-75
2023/09/10 20:26:24;;;;;;;0.22;0.20;;;;;;;26.89;100.00;101496.41;10440372;28;20491;-74
2023/09/10 20:31:27;;;;;;;0.20;0.20;;;;;;;26.72;100.00;101488.13;10446856;28;20033;-75
2023/09/10 20:36:29;;;;;;;0.60;0.28;;;;;;;26.43;100.00;101487.28;10419218;28;20042;-74
2023/09/10 20:41:31;;;;;;;1.00;0.47;;;;;;;26.33;100.00;101481.44;10442009;28;20465;-74
2023/09/10 20:46:32;;;;;;;0.05;0.05;;;;;;;26.40;100.00;101485.59;10446346;28;20044;-74
2023/09/10 20:51:36;;;;;;;0.40;0.40;;;;;;;26.03;100.00;101473.50;10440839;28;20408;-74
2023/09/10 20:56:38;;;;;;;0.35;0.25;;;;;;;26.03;100.00;101483.16;10447989;28;20068;-75
2023/09/10 21:01:40;;;;;;;0.30;0.20;;;;;;;25.87;100.00;101474.84;10435903;28;20130;-74
2023/09/10 21:06:42;;;;;;;0.20;0.10;;;;;;;25.76;100.00;101459.34;10432191;28;20072;-74
2023/09/10 21:11:44;;;;;;;0.45;0.30;;;;;;;25.76;100.00;101448.78;10439814;28;20484;-74
2023/09/10 21:16:45;;;;;;;0.20;0.20;;;;;;;25.60;100.00;101438.66;10445241;28;20266;-74
2023/09/10 21:21:47;;;;;;;1.08;0.77;;;;;;;25.79;100.00;101459.25;10436105;28;20088;-75
2023/09/10 21:26:49;;;;;;;0.40;0.25;;;;;;;25.92;100.00;101459.72;10439631;28;20041;-74
2023/09/10 21:31:51;;;;;;;0.40;0.20;;;;;;;25.92;100.00;101457.97;10453725;28;20399;-74
2023/09/10 21:36:53;;;;;;;1.02;0.22;;;;;;;25.89;100.00;101454.56;10432146;28;20049;-75
2023/09/10 21:41:55;;;;;;;0.10;0.10;;;;;;;25.85;100.00;101463.47;10441580;28;20045;-75
2023/09/10 21:46:56;;;;;;;0.47;0.25;;;;;;;25.83;100.00;101460.03;10435899;28;20053;-75
2023/09/10 21:51:58;;;;;;;0.28;0.20;;;;;;;25.77;100.00;101450.50;10447457;28;20056;-75
2023/09/10 21:57:00;;;;;;;0.10;0.10;;;;;;;25.93;100.00;101441.22;10447374;28;20046;-75
2023/09/10 22:02:02;;;;;;;0.63;0.52;;;;;;;25.34;100.00;101437.59;10450237;28;20062;-74
2023/09/10 22:07:04;;;;;;;1.52;0.30;;;;;;;25.90;100.00;101440.47;10445933;28;20060;-74
2023/09/10 22:12:07;;;;;;;0.40;0.22;;;;;;;25.74;100.00;101440.03;10449900;28;20049;-75
2023/09/10 22:17:09;;;;;;;0.75;0.30;;;;;;;25.61;100.00;101434.28;10443123;28;20495;-74
2023/09/10 22:22:10;;;;;;;0.40;0.20;;;;;;;25.80;100.00;101430.16;10446713;28;20049;-74
2023/09/10 22:27:12;;;;;;;0.13;0.13;;;;;;;25.78;100.00;101431.97;10439692;28;20132;-75
2023/09/10 22:32:14;;;;;;;0.00;0.00;;;;;;;25.68;100.00;101429.66;10456957;28;20047;-74
2023/09/10 22:37:16;;;;;;;0.75;0.45;;;;;;;25.62;100.00;101423.66;10438139;28;20045;-75
2023/09/10 22:42:17;;;;;;;0.57;0.55;;;;;;;25.55;100.00;101427.38;10450407;28;20045;-75
2023/09/10 22:47:19;;;;;;;1.00;0.10;;;;;;;25.12;100.00;101415.38;10445654;28;20055;-74
2023/09/10 22:52:20;;;;;;;0.47;0.20;;;;;;;24.97;100.00;101408.72;10450436;28;20051;-74